x

8722670 - Lake Worth, Fl (lkwf1) Weather Station

6:54am - Mon 2nd Mar 2015 All times are EST. -5 hours from GMT.

  • Wind
    10mph, 13mph gusts
  • Sea Temp 74°f
  • Air Temp 74°f
  • Sea Pressure 1024.5mb
  • 8722670 - Lake Worth, Fl
  • 8722670 - Lake Worth, Fl

More Historic Weather Station data

Upgrade to MSW Pro to gain access to the past 30 days of data for over 8000 Wavebouys and Weather Stations around the globe.

Join Pro

Comparision Forecast

View Surf forecast
   
Mon 03/02 6:54am 10 13 mph 1024.5mb 74f 74f
6:48am 11 14 mph 1024.5mb 74f 74f
6:42am 11 14 mph 1024.5mb 74f 74f
6:36am 13
mph
1024.4mb 74f 75f
6:30am 11 14 mph 1024.4mb 74f 74f
6:24am 11 13 mph 1024.4mb 74f 74f
6:18am 13
mph
1024.4mb 74f 74f
6:12am 13 14 mph 1024.2mb 74f 74f
6:06am 13 14 mph 1024.2mb 74f 74f
6:00am 11 14 mph 1024.1mb 74f 74f
5:54am 13 15 mph 1024mb 74f 74f
5:48am 11 14 mph 1023.9mb 74f 74f
5:42am 11 14 mph 1023.9mb 74f 74f
5:36am 13 15 mph 1023.8mb 74f 74f
5:30am 13 15 mph 1023.8mb 74f 75f
5:24am 13 15 mph 1023.8mb 74f 74f
5:18am 13 14 mph 1023.8mb 74f 75f
5:12am 13 14 mph 1023.7mb 74f 75f
5:06am 13 15 mph 1023.7mb 74f 75f
5:00am 13 14 mph 1023.6mb 74f 74f
4:54am 13 14 mph 1023.5mb 74f 75f
4:48am 11 14 mph 1023.5mb 74f 74f
4:42am 13 15 mph 1023.4mb 74f 74f
4:36am 13 15 mph 1023.4mb 74f 74f
4:30am 14 15 mph 1023.3mb 74f 74f
4:24am 13 14 mph 1023.3mb 74f 74f
4:18am 13 16 mph 1023.2mb 74f 75f
4:12am 14 15 mph 1023.2mb 74f 75f
4:06am 14 15 mph 1023.2mb 74f 75f
4:00am 14 16 mph 1023.2mb 74f 75f
3:54am 14 15 mph 1023.2mb 74f 75f
3:48am 14 16 mph 1023.2mb 74f 75f
3:42am 15 16 mph 1023.4mb 74f 75f
3:36am 16 17 mph 1023.5mb 74f 75f
3:30am 15 17 mph 1023.5mb 74f 75f
3:24am 14 16 mph 1023.5mb 74f 75f
3:18am 17
mph
1023.5mb 74f 75f
3:12am 14 18 mph 1023.5mb 75f 75f
3:06am 17 18 mph 1023.5mb 75f 75f
3:00am 16 18 mph 1023.5mb 75f 75f
2:54am 16 17 mph 1023.6mb 75f 75f
2:48am 16 18 mph 1023.6mb 75f 75f
2:42am 11 15 mph 1023.6mb 75f 74f
2:36am 16 20 mph 1023.6mb 75f 74f
2:30am 15 21 mph 1023.7mb 75f 73f
2:24am 16 18 mph 1023.7mb 75f 74f
2:18am 15 17 mph 1023.8mb 75f 75f
2:12am 14 16 mph 1023.9mb 75f 75f
2:06am 15 17 mph 1024mb 75f 75f
2:00am 13 16 mph 1024.1mb 75f 75f
1:54am 14 16 mph 1024.2mb 75f 75f
1:48am 14 16 mph 1024.2mb 75f 75f
1:42am 14 16 mph 1024.4mb 75f 75f
1:36am 14 16 mph 1024.5mb 75f 75f
1:30am 13 15 mph 1024.6mb 75f 75f
1:24am 14 16 mph 1024.6mb 75f 75f
1:12am 16 18 mph - 75f 75f
1:06am 15 17 mph - 75f 75f
1:00am 14 16 mph 1024.7mb 75f 75f
12:54am 13 15 mph 1024.8mb 75f 75f
12:48am 13 15 mph 1024.9mb 75f 75f
12:42am 13 14 mph 1024.9mb 75f 75f
12:36am 13 14 mph 1025mb 75f 75f
12:30am 10 14 mph 1025mb 75f 75f
12:24am 13 14 mph 1025mb 75f 75f
12:18am 13 14 mph 1025.1mb 75f 75f
12:12am 13 14 mph 1025.1mb 75f 75f
12:06am 11 14 mph 1025.2mb 75f 75f
12:00am 11 14 mph 1025.2mb 75f 75f
Sun 03/01 11:54pm 13 14 mph 1025.2mb 75f 75f
11:48pm 11 14 mph 1025.3mb 75f 75f
11:42pm 13 14 mph 1025.4mb 75f 75f
11:36pm 13 14 mph 1025.4mb 75f 76f
11:30pm 11 15 mph 1025.4mb 75f 76f
11:24pm 11 13 mph 1025.4mb 75f 75f
11:18pm 13 14 mph 1025.4mb 75f 76f
11:12pm 11 13 mph 1025.4mb 75f 76f
11:06pm 11 13 mph 1025.3mb 75f 75f
11:00pm 11 13 mph 1025.4mb 75f 75f
10:54pm 11 13 mph 1025.4mb 75f 75f
10:48pm 9 11 mph 1025.4mb 75f 75f
10:42pm 9 11 mph 1025.5mb 75f 75f
10:36pm 10 11 mph 1025.5mb 75f 75f
10:30pm 10 11 mph 1025.5mb 75f 75f
10:24pm 10 13 mph 1025.6mb 75f 75f
10:18pm 10 13 mph 1025.6mb 75f 75f
10:12pm 11 13 mph 1025.7mb 75f 75f
10:06pm 13 14 mph 1025.7mb 75f 76f
10:00pm 13 14 mph 1025.7mb 75f 76f
9:54pm 11 13 mph 1025.6mb 75f 76f
9:48pm 11 14 mph 1025.6mb 75f 76f
9:42pm 10 13 mph 1025.6mb 75f 76f
9:36pm 11 13 mph 1025.7mb 75f 76f
9:30pm 11 13 mph 1025.6mb 75f 75f
9:24pm 10 14 mph 1025.6mb 75f 75f
9:18pm 11 14 mph 1025.6mb - -
9:12pm 13 14 mph 1025.6mb 75f 75f
9:06pm 13
mph
1025.5mb 75f 75f
9:00pm 11 14 mph 1025.5mb 75f 75f
8:54pm 11 14 mph 1025.5mb 75f 75f
8:48pm 11 14 mph 1025.5mb 75f 75f
8:42pm 14
mph
1025.4mb 75f 75f
8:36pm 13 14 mph 1025.4mb 75f 75f
8:30pm 13 15 mph 1025.4mb 75f 76f
8:24pm 13 15 mph 1025.3mb 75f 75f
8:18pm 11 15 mph 1025.3mb 75f 75f
8:12pm 14 15 mph 1025.3mb 75f 75f
8:06pm 10 14 mph 1025.3mb 75f 75f
8:00pm 11 13 mph 1025.2mb 75f 75f
7:54pm 10 14 mph 1025.1mb 75f 75f
7:48pm 10 14 mph 1025mb 75f 75f
7:42pm 13 14 mph 1025mb 75f 75f
7:36pm 10 13 mph 1025mb 75f 75f
7:30pm 10 13 mph 1024.9mb 75f 75f
7:24pm 11 14 mph 1024.9mb 75f 75f
7:18pm 11 13 mph 1024.8mb 75f 75f
7:12pm 11 13 mph 1024.8mb 75f 75f
7:06pm 11 14 mph 1024.8mb 75f 75f
7:00pm 11 13 mph 1024.8mb 75f 75f
6:54pm 11 14 mph 1024.7mb 75f 75f
6:48pm 11 14 mph 1024.7mb 75f 75f
6:42pm 11 13 mph 1024.8mb 75f 75f
6:36pm 11 13 mph 1024.8mb 75f 75f
6:30pm 13 14 mph 1024.8mb 75f 75f
6:24pm 11 13 mph 1024.8mb 75f 75f
6:18pm 11 13 mph 1024.8mb 75f 75f
6:12pm 13 14 mph 1024.8mb 75f 75f
6:06pm 13 14 mph 1024.7mb 75f 75f
6:00pm 13 14 mph 1024.7mb 75f 75f
5:54pm 11 14 mph 1024.7mb 75f 75f
5:48pm 11 15 mph 1024.7mb 75f 75f
5:42pm 11 14 mph 1024.7mb 75f 75f
5:36pm 11 13 mph 1024.6mb 75f 75f
5:30pm 11 13 mph 1024.6mb 75f 75f
5:24pm 10 13 mph 1024.6mb 75f 75f
5:18pm 11 13 mph 1024.6mb 75f 75f
5:12pm 9 11 mph 1024.6mb 75f 76f
5:06pm 9 11 mph 1024.6mb 76f 76f
5:00pm 10 13 mph 1024.5mb 75f 76f
4:54pm 10 11 mph 1024.5mb 75f 76f
4:48pm 9 11 mph 1024.5mb 76f 76f
4:42pm 10 11 mph 1024.5mb 75f 76f
4:36pm 10 13 mph 1024.4mb 75f 76f
4:30pm 11 13 mph 1024.4mb 75f 76f
4:24pm 10 13 mph 1024.4mb 75f 76f
4:18pm 10 13 mph 1024.4mb 75f 76f
4:12pm 9 13 mph 1024.4mb 75f 76f
4:06pm 9 13 mph 1024.4mb 75f 76f
4:00pm 11 13 mph 1024.4mb 75f 76f
3:54pm 10 13 mph 1024.4mb 75f 76f
3:48pm 11 13 mph 1024.4mb 75f 76f
3:42pm 11 13 mph 1024.4mb 75f 76f
3:36pm 10 13 mph 1024.4mb 75f 76f
3:30pm 11 13 mph 1024.5mb 75f 76f
3:24pm 10 13 mph 1024.5mb 75f 76f
3:18pm 11 13 mph 1024.5mb 75f 76f
3:12pm 10 13 mph 1024.6mb 75f 76f
3:06pm 11 13 mph 1024.6mb 75f 76f
3:00pm 11 13 mph 1024.7mb 75f 76f
2:54pm 11 14 mph 1024.7mb 75f 76f
2:48pm 11 14 mph 1024.8mb 75f 76f
2:42pm 11 13 mph 1024.8mb 75f 76f
2:36pm 11 14 mph 1024.8mb 75f 76f
2:30pm 13 14 mph 1024.9mb 75f 76f
2:24pm 11 14 mph 1025mb 75f 76f
2:18pm 13 15 mph 1025mb 75f 76f
2:12pm 13 14 mph 1025.1mb 75f 76f
2:06pm 13 14 mph 1025.2mb 75f 76f
2:00pm 13 14 mph 1025.1mb 75f 75f
1:54pm 10 14 mph 1025.2mb 75f 76f
1:48pm 10 14 mph 1025.3mb 75f 76f
1:42pm 13 14 mph 1025.3mb 75f 76f
1:36pm 11 13 mph 1025.4mb 75f 75f
1:30pm 11 13 mph 1025.4mb 75f 75f
1:24pm 10 11 mph 1025.5mb 75f 75f
1:18pm 11 13 mph 1025.6mb 75f 75f
1:12pm 11 13 mph 1025.7mb 74f 75f
1:06pm 13 14 mph 1025.8mb 74f 75f
1:00pm 10 14 mph 1025.9mb 75f 76f
12:54pm 13
mph
1025.9mb 74f 75f
12:48pm 11 13 mph 1026mb 74f 75f
12:42pm 11 13 mph 1026.1mb 74f 75f
12:36pm 10 13 mph 1026.1mb 74f 75f
12:30pm 10 13 mph 1026.2mb 74f 75f
12:24pm 13 14 mph 1026.3mb 74f 75f
12:18pm 13 15 mph 1026.3mb 74f 75f
12:12pm 13 15 mph 1026.3mb 74f 75f
12:06pm 13 15 mph 1026.4mb 74f 75f
12:00pm 14 15 mph 1026.5mb 74f 75f
11:54am 13 14 mph 1026.5mb 74f 75f
11:48am 13 15 mph 1026.6mb 74f 75f
11:42am 11 14 mph 1026.7mb 74f 75f
11:36am 13 14 mph 1026.7mb 74f 75f
11:30am 11 14 mph 1026.8mb 74f 75f
11:24am 13 16 mph 1026.8mb 74f 76f
11:18am 13 15 mph 1026.8mb 74f 75f
11:12am 13 14 mph 1026.8mb 74f 75f
11:06am 14 15 mph 1026.9mb 74f 75f
11:00am 14 15 mph 1026.9mb 74f 75f
10:54am 13 15 mph 1026.9mb 74f 75f
10:48am 13 15 mph 1026.9mb 74f 75f
10:42am 14 16 mph 1026.9mb 74f 75f
10:36am 11 15 mph 1027mb 74f 75f
10:30am 14 16 mph 1027mb 74f 75f
10:24am 13 15 mph 1026.9mb 74f 75f
10:18am 14 15 mph 1026.9mb 74f 75f
10:12am 13 16 mph 1026.9mb 74f 75f
10:06am 14 16 mph 1026.9mb 74f 74f
10:00am 14 16 mph 1026.9mb 74f 75f
9:54am 14 16 mph 1027mb 74f 75f
9:48am 14 16 mph 1027mb 74f 75f
9:42am 14 15 mph 1026.9mb 73f 75f
9:36am 14 15 mph 1026.8mb 73f 75f
9:30am 14 17 mph 1026.8mb 73f 75f
9:24am 15 16 mph 1026.7mb 73f 75f
9:18am 14 17 mph 1026.7mb 74f 75f
9:12am 14 16 mph 1026.6mb 73f 75f
9:06am 14 16 mph 1026.6mb 73f 75f
9:00am 15 17 mph 1026.6mb 73f 75f
8:54am 15 16 mph 1026.5mb 73f 74f
8:48am 14 16 mph 1026.4mb 74f 74f
8:42am 16 17 mph 1026.4mb 73f 74f
8:36am 14 18 mph 1026.4mb 73f 74f
8:30am 14 16 mph 1026.4mb 73f 74f
8:24am 16 18 mph 1026.3mb 73f 74f
8:18am 16 17 mph 1026.3mb 73f 74f
8:12am 15 18 mph 1026.1mb 73f 74f
8:06am 15 18 mph 1026.1mb 73f 74f
8:00am 15 18 mph 1026.1mb 73f 74f
7:54am 16 20 mph 1026mb 73f 74f
7:48am 16 20 mph 1026mb 73f 74f
7:42am 16 20 mph 1025.9mb 73f 74f
7:36am 17 20 mph 1025.8mb 73f 74f
7:30am 16 20 mph 1025.9mb 73f 74f
7:24am 16 20 mph 1025.9mb 73f 74f
7:18am 17 20 mph 1025.8mb 73f 74f
7:12am 17 20 mph 1025.6mb 73f 74f
7:06am 18 22 mph 1025.5mb 73f 74f
7:00am 20 22 mph 1025.5mb 73f 74f
6:54am 17 21 mph 1025.4mb 73f 74f
6:48am 18 21 mph 1025.4mb 73f 74f
6:42am 18 22 mph 1025.4mb 73f 74f
6:36am 18 21 mph 1025.4mb 73f 74f
6:30am 17 21 mph 1025.4mb 73f 74f
6:24am 18 20 mph 1025.3mb 73f 74f
6:18am 16 20 mph 1025.2mb 73f 74f
6:12am 16 20 mph 1025.2mb 73f 74f
6:06am 17 20 mph 1025.1mb 73f 74f
6:00am 16 18 mph 1025mb 73f 74f
5:54am 18 20 mph 1025mb 73f 74f
5:48am 17 21 mph 1025mb 73f 74f
5:42am 20 21 mph 1024.9mb 73f 74f
5:36am 18 22 mph 1024.8mb 73f 74f
5:30am 16 20 mph 1024.8mb 73f 74f
5:24am 17 21 mph 1024.8mb 73f 74f
5:18am 17 20 mph 1024.7mb 73f 74f
5:12am 16 21 mph 1024.7mb 73f 74f
5:06am 18 20 mph 1024.6mb 73f 74f
5:00am 17 21 mph 1024.5mb 73f 74f
4:54am 14 21 mph 1024.5mb 73f 74f
4:48am 16 20 mph 1024.5mb 73f 74f
4:42am 18 23 mph 1024.4mb 73f 74f
4:36am 18 22 mph 1024.4mb 73f 74f
4:30am 18 21 mph 1024.4mb 73f 74f
4:24am 17 21 mph 1024.4mb 73f 74f
4:18am 17 22 mph 1024.4mb 73f 74f
4:12am 17 22 mph 1024.5mb 73f 74f
4:06am 17 23 mph 1024.4mb 73f 74f
4:00am 18 21 mph 1024.4mb 73f 74f
3:54am 18 22 mph 1024.5mb 73f 74f
3:48am 20 24 mph 1024.5mb 73f 73f
3:42am 18 22 mph 1024.5mb 73f 74f
3:36am 17 21 mph 1024.5mb 73f 74f
3:30am 15 20 mph 1024.4mb 73f 74f
3:18am 16 20 mph 1024.5mb 73f 74f
3:12am 15 20 mph 1024.5mb 73f 74f
3:06am 18 21 mph 1024.4mb 73f 74f
3:00am 18 22 mph 1024.4mb 73f 74f
2:54am 16 20 mph 1024.4mb 73f 74f
2:48am 20 22 mph 1024.4mb 73f 74f
2:42am 16 21 mph 1024.5mb 73f 74f
2:36am 20 22 mph 1024.5mb 73f 74f
2:30am 18 21 mph 1024.5mb 73f 74f
2:24am 18 22 mph 1024.6mb 73f 74f
2:18am 20 22 mph 1024.6mb 73f 74f
2:06am 20 22 mph 1024.7mb 73f 74f
2:00am 21 23 mph 1024.7mb 73f 74f
1:54am 21 24 mph 1024.7mb 73f 74f
1:48am 22 25 mph 1024.8mb 73f 74f
1:42am 22 25 mph 1024.9mb 73f 74f
1:36am 22 26 mph 1024.9mb 73f 74f
1:24am 25 28 mph 1024.9mb 73f 74f
1:18am 23 28 mph 1025.1mb 73f 74f
1:12am 23 28 mph 1025.2mb 73f 74f
1:06am 23 26 mph 1025.2mb 73f 74f
1:00am 24 28 mph 1025.2mb 73f 74f
12:54am 24 29 mph 1025.1mb 73f 74f
12:48am 26 29 mph 1025.2mb 73f 74f
12:42am 23 28 mph 1025.2mb 73f 74f
12:36am 25 29 mph 1025.3mb 73f 74f
12:30am 24 29 mph 1025.4mb 73f 74f
12:24am 24 29 mph 1025.5mb 73f 73f
12:18am 25 29 mph 1025.5mb 73f 73f
12:12am 23 28 mph 1025.7mb 73f 72f
12:06am 24 28 mph 1025.7mb 73f 74f
12:00am 22 26 mph 1025.7mb 73f 73f
Sat 02/28 11:54pm 22 28 mph 1025.7mb 73f 73f
11:48pm 25 30 mph 1025.7mb 73f 73f
11:42pm 23 29 mph 1025.8mb 73f 73f
11:36pm 25 28 mph 1025.8mb 73f 73f
11:30pm 25 28 mph 1025.8mb 73f 73f
11:24pm 24 29 mph 1025.8mb 73f 74f
11:18pm 21 25 mph 1025.8mb 73f 74f
11:12pm 24 28 mph 1025.9mb 73f 74f
11:06pm 22 25 mph 1026mb 73f 74f
11:00pm 24 28 mph 1026.1mb 73f 74f
10:48pm 24 29 mph 1025.8mb 73f 74f
10:42pm 22 29 mph 1025.7mb 73f 74f
10:36pm 25 29 mph 1025.7mb 73f 74f
10:30pm 24 29 mph 1025.8mb 73f 74f
10:24pm 24 26 mph 1025.8mb 73f 74f
10:18pm 23 28 mph 1025.9mb 73f 74f
10:12pm 23 28 mph 1025.8mb 73f 74f
10:06pm 23 28 mph 1025.8mb 73f 74f
10:00pm 24 29 mph 1025.8mb 73f 74f
9:54pm 24 29 mph 1025.8mb 73f 74f
9:48pm 24 28 mph 1025.8mb 73f 74f
9:42pm 23 29 mph 1025.7mb 73f 74f
9:36pm 23 29 mph 1025.6mb 73f 74f
9:30pm 24 29 mph 1025.5mb 73f 74f
9:24pm 25 29 mph 1025.5mb 73f 74f
9:18pm 25 29 mph 1025.3mb 73f 74f
9:12pm 25 30 mph 1025.3mb 73f 74f
9:06pm 25 29 mph 1025.3mb 73f 74f
9:00pm 25 29 mph 1025.4mb 73f 74f
8:54pm 23 28 mph 1025.5mb 73f 74f
8:48pm 25 29 mph 1025.4mb 73f 74f
8:42pm 24 30 mph 1025.3mb 73f 74f
8:36pm 25 30 mph 1025.3mb 73f 74f
8:30pm 26 29 mph 1025.2mb 73f 74f
8:24pm 25 29 mph 1025.1mb 73f 74f
8:18pm 24 30 mph 1025.1mb 73f 74f
8:12pm 23 29 mph 1025mb 73f 74f
8:06pm 24 29 mph 1024.8mb 73f 74f
8:00pm 23 28 mph 1024.7mb 73f 74f
7:54pm 24 29 mph 1024.6mb 73f 74f
7:48pm 24 29 mph 1024.5mb 73f 74f
7:42pm 26 30 mph 1024.6mb 73f 74f
7:36pm 24 30 mph 1024.4mb 73f 74f
7:30pm 28 30 mph 1024.1mb 73f 74f
7:24pm 25 29 mph 1024mb 73f 74f
7:18pm 24 28 mph 1024.2mb 73f 74f
7:12pm 21 25 mph 1024.2mb 73f 74f
7:06pm 21 28 mph 1024.1mb 73f 74f
7:00pm 24 28 mph 1024mb 73f 74f
6:54pm 25 29 mph 1023.9mb 73f 74f
6:48pm 25 29 mph 1023.8mb 73f 74f
6:42pm 25 29 mph 1023.9mb 73f 74f
6:36pm 25 30 mph 1023.8mb 73f 74f
6:00pm 25 29 mph 1023.9mb 73f 74f
5:54pm 23 28 mph 1023.8mb 73f 74f
5:48pm 23 28 mph 1023.9mb 73f 74f
5:42pm 24 29 mph 1023.9mb 73f 74f
5:36pm 24 26 mph 1024mb 73f 74f
5:30pm 23 26 mph 1023.8mb 73f 74f
5:24pm 22 28 mph 1023.7mb 73f 74f
5:18pm 24 29 mph 1023.6mb 73f 74f
5:12pm 25 29 mph 1023.5mb 73f 74f
5:06pm 24 28 mph 1023.5mb 73f 74f
5:00pm 24 28 mph 1023.5mb 73f 74f
4:54pm 25 29 mph 1023.2mb 73f 74f
4:48pm 25 29 mph 1023mb 73f 73f
4:42pm 25 29 mph 1023.1mb 73f 73f
4:36pm 25 29 mph 1023.1mb 73f 73f
4:30pm 25 29 mph 1023mb 73f 73f
4:24pm 25 28 mph 1023mb 74f 73f
4:18pm 24 28 mph 1023mb 74f 73f
4:12pm 24 29 mph - - -
4:06pm 22 28 mph 1023mb 74f 74f
4:00pm 25 29 mph 1023.1mb 74f 73f
3:54pm 25 29 mph 1023.1mb 74f 73f
3:48pm 25 28 mph 1023mb 74f 73f
3:42pm 25 29 mph 1023.1mb 74f 73f
3:36pm 25 28 mph 1023.1mb 74f 73f
3:30pm 24 28 mph 1023.3mb 74f 73f
3:24pm 26 29 mph 1023.3mb 74f 73f
3:18pm 21 29 mph 1023.2mb 73f 73f
3:12pm 23 29 mph 1023mb 73f 73f
3:06pm 24 28 mph 1022.9mb 73f 73f
3:00pm 25 28 mph 1022.9mb 73f 73f
2:54pm 23 29 mph 1023mb 73f 73f
2:48pm 24 29 mph 1022.9mb 74f 73f
2:42pm 25 30 mph 1022.7mb 73f 73f
2:36pm 26 30 mph 1022.5mb 73f 73f
2:30pm 24 28 mph 1022.8mb 73f 74f
2:24pm 24 29 mph 1022.8mb 73f 74f
2:18pm 25 30 mph 1022.9mb 73f 74f
2:12pm 24 28 mph 1022.6mb 73f 73f
2:06pm 24 28 mph 1022.8mb 73f 73f
2:00pm 26 30 mph 1022.9mb 73f 74f
1:54pm 24 30 mph 1023.1mb 73f 74f
1:48pm 24 29 mph 1023mb 73f 74f
1:42pm 22 28 mph 1023mb 73f 74f
1:36pm 24 28 mph 1023mb 73f 74f
1:30pm 21 26 mph 1023.1mb 73f 74f
1:24pm 22 25 mph 1023.3mb 73f 74f
1:18pm 22 25 mph 1023.5mb 73f 74f
1:12pm 21 24 mph 1023.6mb 73f 74f
1:00pm 18 24 mph 1023.9mb 73f 75f
12:54pm 21 24 mph 1023.9mb 73f 75f
12:48pm 21 25 mph 1023.9mb 73f 75f
12:42pm 20 25 mph 1023.9mb 73f 75f
12:36pm 22 25 mph 1024mb 73f 75f
12:30pm 20 24 mph 1024.1mb 73f 75f
12:24pm 20 22 mph 1024.1mb 73f 75f
12:18pm 22 23 mph 1024.2mb 73f 75f
12:12pm 18 22 mph 1024.3mb 73f 75f
12:06pm 21 23 mph 1024.2mb 73f 75f
12:00pm 21 24 mph 1024.1mb 73f 75f
11:54am 21 23 mph 1024.2mb 73f 75f
11:48am 21 23 mph 1024.3mb 73f 75f
11:42am 22 25 mph 1024.3mb 73f 75f
11:36am 21 23 mph 1024.5mb 73f 75f
11:30am 18 23 mph 1024.7mb 73f 75f
11:24am 21 23 mph 1024.7mb 73f 75f
11:18am 20 22 mph 1024.8mb 73f 75f
11:12am 20 21 mph 1024.9mb 73f 75f
11:06am 20 23 mph 1024.9mb 73f 75f
11:00am 20 23 mph 1025mb 73f 75f
10:54am 20 23 mph 1024.9mb 73f 75f
10:48am 18 22 mph 1025mb 73f 75f
10:42am 17 22 mph 1025mb 73f 75f
10:36am 17 20 mph 1025.1mb 73f 75f
10:30am 17 21 mph 1025.1mb 73f 75f
10:24am 18 21 mph 1025mb 73f 75f
10:18am 20 22 mph 1024.9mb 73f 75f
10:12am 17 22 mph 1024.9mb 73f 75f
10:06am 18 23 mph 1024.8mb 73f 75f
10:00am 21 22 mph 1024.7mb 73f 75f
9:54am 18 22 mph 1024.7mb 73f 75f
9:48am 20 22 mph 1024.6mb 73f 75f
9:42am 20 22 mph 1024.6mb 73f 75f
9:36am 18 23 mph 1024.5mb 73f 75f
9:30am 17 22 mph 1024.3mb 73f 75f
9:24am 20 22 mph 1024.3mb 73f 74f
9:18am 18 22 mph 1024.2mb 73f 74f
9:06am 18 21 mph 1024.1mb 73f 75f
9:00am 17 22 mph 1024mb 73f 75f
8:54am 18 21 mph 1024mb 73f 75f
8:48am 17 20 mph 1024mb 73f 75f
8:42am 17 20 mph 1024mb 73f 75f
8:36am 20 21 mph 1023.9mb 73f 75f
8:30am 17 21 mph 1023.8mb 73f 75f
8:24am 17 21 mph 1023.7mb 73f 75f
8:18am 17 21 mph 1023.6mb 73f 75f
8:12am 18 20 mph 1023.5mb 73f 75f
8:06am 17 21 mph 1023.4mb 73f 75f
8:00am 18 21 mph 1023.3mb 73f 74f
7:54am 18 21 mph 1023.3mb 73f 75f
7:48am 17 21 mph 1023.3mb 73f 75f
7:42am 18 21 mph 1023.2mb 73f 75f
7:36am 18 21 mph 1023.2mb 73f 75f
7:30am 18 21 mph 1022.9mb 73f 74f
7:24am 20 22 mph 1022.8mb 73f 74f
7:18am 18 22 mph 1022.8mb 73f 74f
7:12am 17 21 mph 1022.7mb 73f 74f
7:06am 17 20 mph 1022.7mb 73f 74f
7:00am 16 20 mph 1022.7mb 73f 74f
6:54am 17 20 mph 1022.6mb 73f 74f
6:48am 17 20 mph 1022.5mb 73f 74f
6:42am 15 20 mph 1022.5mb 73f 74f
6:36am 16 18 mph 1022.4mb 73f 74f
6:30am 17 20 mph 1022.3mb 73f 74f
6:24am 17 20 mph 1022.2mb 73f 74f
6:18am 20 21 mph 1022.1mb 73f 74f
6:12am 16 18 mph 1022.2mb 73f 74f
6:06am 17 20 mph 1022mb 73f 74f
6:00am 17 18 mph 1022.1mb 73f 74f
5:54am 16 18 mph 1022mb 73f 74f
5:48am 16 18 mph 1021.9mb 72f 74f
5:42am 16 18 mph 1021.8mb 72f 74f
5:36am 18 20 mph 1021.7mb 72f 74f
5:30am 17 20 mph 1021.6mb 72f 74f
5:24am 17 20 mph 1021.6mb 72f 74f
5:18am 17 20 mph 1021.6mb 72f 74f
5:12am 18 21 mph 1021.5mb 72f 74f
5:06am 17 18 mph 1021.4mb 72f 74f
5:00am 16 20 mph 1021.4mb 72f 73f
4:54am 16 20 mph 1021.3mb 72f 74f
4:48am 16 18 mph 1021.3mb 72f 74f
4:42am 16 18 mph 1021.3mb 72f 73f
4:36am 16 20 mph 1021.2mb 73f 73f
4:30am 17 21 mph 1021.1mb 73f 73f
4:24am 18 21 mph 1021mb 73f 73f
4:18am 17 22 mph 1021mb 73f 74f
4:12am 18 21 mph 1020.9mb 73f 73f
4:06am 18 20 mph 1020.8mb 73f 73f
4:00am 18 21 mph 1020.7mb 73f 73f
3:54am 20 23 mph 1020.7mb 73f 73f
3:48am 20 22 mph 1020.8mb 73f 73f
3:42am 20 22 mph 1020.9mb 73f 73f
3:36am 18 22 mph 1020.9mb 73f 73f
3:30am 18 22 mph 1020.8mb 73f 73f
3:24am 18 21 mph 1020.8mb 73f 73f
3:18am 17 20 mph 1020.9mb 73f 73f
3:12am 15 18 mph 1021mb 73f 73f
3:06am 16 20 mph 1021mb 73f 73f
3:00am 17 20 mph 1021mb 73f 73f
2:54am 20 21 mph 1020.9mb 73f 73f
2:48am 18 21 mph 1020.9mb 73f 73f
2:42am 18 20 mph 1021mb 73f 73f
2:36am 18 20 mph 1021mb 73f 73f
2:30am 18 21 mph 1021mb 73f 73f
2:24am 20 22 mph 1021mb 73f 73f
2:18am 17 21 mph 1021mb 73f 73f
2:12am 18 22 mph 1021mb 73f 73f
2:06am 18 22 mph 1021mb 73f 73f
2:00am 21 23 mph 1020.9mb 73f 73f
1:54am 20 22 mph 1021mb 73f 73f
1:48am 20 22 mph 1021.1mb 73f 73f
1:42am 20 22 mph 1021.1mb 73f 73f
1:36am 21 22 mph 1021.1mb 73f 73f
1:30am 18 22 mph 1021.2mb 73f 73f
1:24am 20 23 mph 1021.3mb 73f 73f
1:18am 20 22 mph 1021.3mb 73f 73f
1:12am 20 23 mph 1021.2mb 73f 73f
1:06am 21 23 mph 1021.2mb 73f 73f
1:00am 18 23 mph 1021.4mb 73f 73f
12:54am 21 23 mph 1021.4mb 73f 73f
12:48am 22 24 mph 1021.3mb 73f 73f
12:42am 22 23 mph 1021.3mb 73f 73f
12:36am 23 25 mph 1021.3mb 73f 72f
12:30am 23 25 mph 1021.3mb 73f 72f
12:24am 21 22 mph 1021.5mb 73f 72f
12:18am 21 24 mph 1021.5mb 73f 72f
12:12am 21 24 mph 1021.5mb 73f 72f
12:06am 21 23 mph 1021.7mb 73f 72f
12:00am 21 24 mph 1021.7mb 73f 72f
Fri 02/27 11:54pm 22 24 mph 1021.7mb 73f 72f
11:48pm 22 24 mph 1021.7mb 73f 72f
11:42pm 21 24 mph 1021.8mb 73f 72f
11:36pm 21 24 mph 1021.8mb 73f 72f
11:30pm 22 24 mph 1021.7mb 73f 71f
11:24pm 22 24 mph 1021.7mb 73f 71f
11:18pm 22 26 mph 1021.7mb 73f 71f
11:12pm 22 26 mph 1021.7mb 73f 71f
11:06pm 21 24 mph 1021.8mb 73f 71f
11:00pm 23 25 mph 1021.8mb 73f 71f
10:48pm 24 26 mph 1021.7mb 73f 71f
10:42pm 21 25 mph 1021.7mb 73f 71f
10:36pm 21 25 mph 1021.8mb 73f 71f
10:30pm 20 24 mph 1021.9mb 73f 71f
10:24pm 21 25 mph 1021.9mb 73f 71f
10:18pm 22 24 mph 1021.9mb 73f 71f
10:12pm 22 24 mph 1021.8mb 73f 72f
10:06pm 22 23 mph 1021.9mb 73f 72f
10:00pm 18 23 mph 1021.8mb 73f 72f
9:54pm 21 25 mph 1021.7mb 73f 72f
9:48pm 20 24 mph 1021.7mb 73f 72f
9:42pm 22 25 mph 1021.6mb 73f 72f
9:36pm 20 25 mph 1021.6mb 73f 72f
9:30pm 21 25 mph 1021.5mb 73f 72f
9:24pm 21 23 mph 1021.5mb 73f 72f
9:18pm 22 25 mph 1021.5mb 73f 72f
9:12pm 22 24 mph 1021.4mb 73f 72f
9:06pm 20 22 mph 1021.4mb 73f 72f
9:00pm 18 22 mph 1021.4mb 73f 72f
8:54pm 18 22 mph 1021.4mb 73f 71f
8:48pm 20 23 mph 1021.3mb 73f 71f
8:42pm 21 22 mph 1021.1mb 73f 71f
8:36pm 18 22 mph 1021.1mb 73f 71f
8:30pm 21 23 mph 1021mb 73f 71f
8:24pm 22 25 mph 1020.9mb 73f 72f
8:18pm 22 24 mph 1020.7mb 73f 72f
8:12pm 20 23 mph 1020.8mb 73f 72f
8:06pm 21 23 mph 1020.9mb 73f 72f
8:00pm 21 24 mph 1020.8mb 73f 72f
7:54pm 20 23 mph 1020.7mb 73f 72f
7:48pm 20 23 mph 1020.7mb 73f 72f
7:42pm 23 25 mph 1020.4mb 73f 71f
7:36pm 24 25 mph 1020.4mb 73f 71f
7:30pm 22 24 mph 1020.3mb 73f 71f
7:24pm 22 24 mph 1020.3mb 73f 71f
7:18pm 21 24 mph 1020.3mb 73f 70f
7:12pm 23 25 mph 1020.2mb 73f 70f
7:06pm 23 26 mph 1020.2mb 73f 70f
7:00pm 23 26 mph 1020.1mb 73f 70f
6:54pm 25 28 mph 1020mb 73f 70f
6:48pm 24 26 mph 1020mb 73f 70f
6:42pm 24 26 mph 1019.9mb 73f 71f
6:36pm 22 25 mph 1019.8mb 73f 71f
6:30pm 22 24 mph 1019.8mb 73f 71f
6:24pm 21 23 mph 1019.7mb 73f 71f
6:18pm 11 14 mph 1019.8mb 73f 69f
6:12pm 11 14 mph 1019.8mb 73f 69f
6:06pm 13 17 mph 1019.8mb 73f 67f
6:00pm 11 16 mph 1019.9mb 73f 67f
5:54pm 14 17 mph 1019.9mb 73f 67f
5:48pm 15 18 mph 1019.8mb 73f 68f
5:42pm 17 22 mph 1019.7mb 73f 67f
5:36pm 17 22 mph 1019.7mb 73f 67f
5:30pm 17 22 mph 1019.6mb 73f 68f
5:24pm 18 23 mph 1019.6mb 73f 68f
5:18pm 18 23 mph 1019.6mb 73f 68f
5:12pm 20 22 mph 1019.5mb 73f 68f
5:06pm 17 22 mph 1019.3mb 73f 68f
5:00pm 17 22 mph 1019.4mb 73f 68f
4:54pm 15 21 mph 1019.4mb 73f 68f
4:48pm 17 20 mph 1019.3mb 73f 67f
4:42pm 16 20 mph 1019.3mb 73f 67f
4:36pm 16 18 mph 1019.1mb 73f 67f
4:30pm 16 18 mph 1019.1mb 73f 67f
4:24pm 16 18 mph 1019.1mb 73f 67f
4:18pm 18 21 mph 1019.2mb 73f 67f
4:12pm 18 21 mph 1019mb 73f 67f
4:06pm 18 24 mph 1019mb 73f 67f
4:00pm 15 20 mph 1018.9mb 73f 67f
3:54pm 17 21 mph 1019mb 73f 67f
3:48pm 16 17 mph 1019mb 73f 66f
3:42pm 16 17 mph 1019mb 73f 66f
3:36pm 14 20 mph 1019.2mb 73f 66f
3:30pm 13 20 mph 1019.3mb 73f 66f
3:24pm 11 16 mph 1019.3mb 73f 66f
3:18pm 15 20 mph 1019.4mb 73f 66f
3:12pm 15 20 mph 1019.4mb 73f 66f
3:06pm 15 22 mph 1019.3mb 73f 67f
3:00pm 15 21 mph 1019.3mb 73f 67f
2:54pm 15 21 mph 1019.3mb 73f 67f
2:48pm 14 18 mph 1019.3mb 73f 67f
2:42pm 14 17 mph 1019.2mb 73f 68f
2:36pm 15 17 mph 1019.2mb 73f 68f
2:30pm 15 17 mph 1019.2mb 73f 68f
2:24pm 14 16 mph 1019.2mb 73f 69f
2:18pm 9 14 mph 1019.3mb 73f 69f
2:12pm 14 16 mph 1019.1mb 73f 69f
2:06pm 14 16 mph 1019.2mb 73f 69f
2:00pm 14 16 mph 1019.2mb 73f 69f
1:54pm 16 20 mph 1019.3mb 73f 69f
1:48pm 15 21 mph 1019.2mb 73f 68f
1:42pm 18 21 mph 1019.1mb 73f 68f
1:36pm 16 18 mph 1019.1mb 73f 68f
1:30pm 15 21 mph 1019.2mb 73f 68f
1:24pm 17 21 mph 1019.2mb 73f 68f
1:18pm 16 17 mph 1019.3mb 73f 68f
1:12pm 14 16 mph 1019.5mb 73f 68f
1:06pm 13 16 mph 1019.6mb 73f 68f
1:00pm 13 16 mph 1019.8mb 73f 68f
12:54pm 14 17 mph 1019.8mb 73f 68f
12:48pm 17 21 mph 1019.7mb 73f 68f
12:42pm 16 21 mph 1019.7mb 73f 68f
12:36pm 16 20 mph 1019.7mb 73f 68f
12:30pm 11 16 mph 1019.8mb 73f 68f
12:24pm 11 15 mph 1019.9mb 73f 67f
12:18pm 14 20 mph 1020mb 73f 68f
12:12pm 16 18 mph 1020mb 73f 68f
12:06pm 11 17 mph 1020mb 73f 68f
12:00pm 15 18 mph 1020.1mb 73f 68f
11:54am 15 18 mph 1019.9mb 73f 68f
11:48am 16 18 mph 1020mb 73f 67f
11:42am 11 18 mph 1020.2mb 73f 67f
11:36am 16 22 mph 1020.2mb 73f 68f
11:30am 16 20 mph 1020.2mb 73f 67f
11:24am 13 18 mph 1020.2mb 73f 68f
11:18am 17 22 mph 1020.1mb 73f 67f
11:12am 17 20 mph 1020mb 73f 67f
11:06am 17 20 mph 1020mb 73f 67f
11:00am 16 18 mph 1020mb 73f 67f
10:54am 13 18 mph 1020.1mb 73f 66f
10:48am 15 17 mph 1020.1mb 73f 66f
10:42am 14 18 mph 1020.1mb 73f 66f
10:36am 13 17 mph 1020.1mb 73f 66f
10:30am 10 15 mph 1020mb 73f 66f
10:24am 10 14 mph 1020.1mb 73f 65f
10:18am 13 16 mph 1020.1mb 73f 65f
10:12am 14 18 mph 1020mb 73f 66f
10:06am 14 17 mph 1019.9mb 73f 65f
10:00am 10 15 mph 1019.9mb 73f 65f
9:54am 10 14 mph 1020.2mb 73f 65f
9:42am 9 11 mph 1020.2mb 73f 65f
9:36am 9 11 mph 1020mb 73f 65f
9:30am 9 14 mph 1020mb 73f 66f
9:24am 13 16 mph 1019.8mb 73f 66f
9:18am 10 15 mph 1019.7mb 73f 66f
9:12am 10 13 mph 1019.6mb 73f 66f
9:06am 10 14 mph 1019.6mb 73f 66f
9:00am 9 15 mph 1019.5mb 73f 66f
8:54am 10 13 mph 1019.4mb 73f 66f
8:48am 10 11 mph 1019.2mb 73f 66f
8:42am 9 15 mph 1019.1mb 73f 66f
8:36am 10 13 mph 1019mb 73f 66f
8:30am 9 14 mph 1018.9mb 73f 66f
8:24am 9 11 mph 1018.8mb 73f 66f
8:18am 7 9 mph 1018.7mb 73f 66f
8:12am 7 9 mph 1018.7mb 73f 66f
8:06am 7 13 mph 1018.5mb 73f 66f
8:00am 8 10 mph 1018.3mb 73f 66f
7:54am 8 14 mph 1018.2mb 73f 66f
7:48am 11 14 mph 1018.1mb 73f 66f
7:42am 11 15 mph 1017.9mb 73f 66f
7:36am 14 17 mph 1017.5mb 73f 66f
7:30am 9 13 mph 1017.5mb 73f 65f
7:24am 8 10 mph 1017.7mb 73f 65f
7:18am 7 11 mph 1017.8mb 73f 65f
7:12am 10 11 mph 1017.4mb 73f 65f
7:06am 9 13 mph 1017.4mb 73f 66f
7:00am 8 9 mph 1017.9mb 73f 66f
6:54am 6 7 mph 1017.5mb 73f 66f
6:48am 6 9 mph 1017.2mb 73f 67f
6:42am 9 13 mph 1017.2mb 73f 67f
6:36am 9 11 mph 1017mb 73f 67f
6:30am 9 11 mph 1017mb 73f 67f
6:24am 8 10 mph 1017mb 73f 67f
6:18am 8 13 mph 1017mb 73f 67f
6:12am 8 11 mph 1016.9mb 73f 67f
6:06am 10 15 mph 1016.7mb 73f 67f
6:00am 9 13 mph 1016.6mb 73f 67f
5:54am 9 13 mph 1016.6mb 73f 67f
5:48am 9 11 mph 1016.5mb 73f 67f
5:42am 10 13 mph 1016.4mb 73f 67f
5:36am 9 11 mph 1016.2mb 73f 67f
5:30am 8 10 mph 1016.2mb 73f 67f
5:24am 8 10 mph 1016.2mb 73f 66f
5:18am 10 11 mph 1016.2mb 73f 66f
5:12am 9 14 mph 1016.1mb 73f 66f
5:06am 11 14 mph 1016.2mb 73f 67f
5:00am 14 16 mph 1016.2mb 73f 67f
4:54am 14 16 mph 1016mb 73f 67f
4:48am 13 15 mph 1016mb 73f 66f
4:42am 13 14 mph 1015.8mb 73f 67f
4:36am 13 15 mph 1015.7mb 73f 67f
4:30am 9 13 mph 1015.7mb 73f 66f
4:24am 8 11 mph 1015.7mb 73f 66f
4:18am 8 10 mph 1015.6mb 73f 67f
4:12am 9 10 mph 1015.6mb 73f 66f
4:06am 8 9 mph 1015.6mb 73f 66f
4:00am 8 9 mph 1015.6mb 73f 66f
3:54am 7 9 mph 1015.7mb 73f 67f
3:48am 10 14 mph 1015.6mb 73f 67f
3:42am 10 14 mph 1015.6mb 73f 67f
3:36am 9 10 mph 1015.6mb 73f 67f
3:30am 9 11 mph 1015.7mb 73f 67f
3:24am 7 10 mph 1015.9mb 73f 67f
3:18am 7 9 mph 1015.9mb 73f 67f
3:12am 8 9 mph 1015.8mb 73f 67f
3:06am 7 9 mph 1015.7mb 73f 67f
3:00am 7 9 mph 1015.7mb 73f 67f
2:54am 8 10 mph 1015.8mb 73f 67f
2:48am 8 11 mph 1015.9mb 73f 67f
2:42am 8 11 mph 1015.9mb 73f 67f
2:36am 7 8 mph 1015.9mb 73f 68f
2:30am 7 9 mph 1015.8mb 73f 68f
2:24am 7 9 mph 1015.8mb 73f 68f
2:18am 8 9 mph 1015.8mb 73f 68f
2:12am 7 10 mph 1015.7mb 73f 68f
2:06am 8 10 mph 1015.7mb 73f 68f
2:00am 8 14 mph 1015.8mb 73f 67f
1:54am 9 14 mph 1015.8mb 73f 67f
1:48am 10 13 mph 1015.9mb - 68f
1:42am 9 11 mph 1015.9mb - 68f
1:36am 10 13 mph 1015.8mb - 68f
1:30am 10 13 mph 1015.7mb 73f 68f
1:24am 9 11 mph 1015.8mb 73f 68f
1:18am 8 10 mph 1015.9mb 73f 68f
1:12am 8 10 mph 1015.9mb 73f 68f
1:06am 8 11 mph 1015.8mb 73f 68f
1:00am 8 11 mph 1015.9mb 73f 68f
12:54am 9 14 mph 1015.9mb 73f 68f
12:48am 13 14 mph 1015.9mb 73f 68f
12:42am 11 14 mph 1015.9mb 73f 68f
12:36am 11 14 mph 1015.8mb 73f 69f
12:30am 8 13 mph 1015.9mb 73f 69f
12:24am 10 13 mph 1016.1mb 73f 69f
12:18am 9 13 mph 1016.1mb 73f 69f
12:12am 8 13 mph 1016.2mb 73f 69f
12:06am 11 17 mph 1016.3mb 73f 69f
12:00am 11 18 mph 1016.2mb 73f 69f
Thu 02/26 11:54pm 11 14 mph 1016.1mb 73f 70f
11:48pm 11 14 mph 1016mb 73f 70f
11:42pm 14 16 mph 1015.9mb 73f 70f
11:36pm 13 14 mph 1016mb 73f 69f
11:30pm 14 17 mph 1016mb 73f 70f
11:24pm 16 17 mph 1015.9mb 73f 70f
11:18pm 16 18 mph 1015.8mb 73f 70f
11:12pm 16 18 mph 1015.8mb 73f 71f
11:06pm 15 17 mph 1015.7mb 73f 71f
10:54pm 14 15 mph 1015.6mb 73f 71f
10:48pm 10 13 mph 1015.6mb 73f 71f
10:42pm 13
mph
1015.6mb 73f 71f
10:36pm 13
mph
1015.6mb 73f 71f
10:30pm 11 14 mph 1015.6mb 73f 71f
10:24pm 11 14 mph 1015.6mb 73f 71f
10:18pm 10 11 mph 1015.6mb 73f 71f
10:12pm 7 11 mph 1015.5mb 73f 71f
10:06pm 8 10 mph 1015.5mb 73f 71f
10:00pm 9 11 mph 1015.5mb 73f 71f
9:54pm 8 11 mph 1015.5mb 73f 72f
9:48pm 9 11 mph 1015.4mb 73f 72f
9:42pm 10 13 mph 1015.3mb 73f 72f
9:36pm 9 10 mph 1015.2mb 73f 72f
9:30pm 10 11 mph 1015.1mb 73f 72f
9:24pm 11
mph
1015.1mb 73f 72f
9:18pm 10 11 mph 1015mb 73f 73f
9:12pm 8 9 mph 1015mb 73f 73f
9:06pm 8 9 mph 1015mb 73f 73f
9:00pm 7
mph
1014.8mb 73f 73f
8:54pm 6 7 mph 1014.7mb 73f 73f
8:48pm 6 8 mph 1014.6mb 73f 73f
8:42pm 7 8 mph 1014.6mb 73f 73f
8:36pm 7 8 mph 1014.5mb 73f 73f
8:30pm 7 8 mph 1014.4mb 73f 73f
8:24pm 6 8 mph 1014.3mb 73f 74f
8:18pm 7 8 mph 1014.2mb 73f 74f
8:12pm 6 8 mph 1014mb 73f 74f
8:06pm 7 8 mph 1014.1mb 73f 74f
8:00pm 6 9 mph 1014mb 73f 74f
7:54pm 6 8 mph 1013.9mb 73f 74f
7:48pm 6 11 mph 1013.7mb 73f 74f
7:42pm 9 10 mph 1013.6mb 73f 75f
7:36pm 8 9 mph 1013.5mb 74f 76f
7:30pm 6 7 mph 1013.4mb 74f 76f
7:24pm 5 8 mph 1013.3mb 74f 76f
7:18pm 7 8 mph 1013.3mb 74f 77f
7:12pm 7 9 mph 1013.3mb 74f 77f
7:06pm 7 9 mph 1013.2mb 74f 77f
7:00pm 7 8 mph 1013.1mb 74f 78f
6:54pm 7 10 mph 1013mb 74f 78f
6:48pm 7 11 mph 1012.9mb 74f 79f
6:42pm 9 11 mph 1012.9mb 74f 79f
6:36pm 9 14 mph 1012.8mb 74f 79f
6:30pm 8 13 mph 1012.6mb 74f 79f
6:24pm 8 15 mph 1012.6mb 74f 79f
6:18pm 10 20 mph 1012.5mb 74f 79f
6:12pm 14 18 mph 1012.5mb 74f 79f
6:06pm 10 14 mph 1012.4mb 74f 79f
6:00pm 13 18 mph 1012.3mb 74f 80f
5:54pm 10 22 mph 1012.3mb 74f 80f
5:48pm 13 22 mph 1012.2mb 74f 80f
5:42pm 17 22 mph 1012.1mb 74f 80f
5:36pm 17 24 mph 1012mb 74f 80f
5:30pm 14 22 mph 1011.9mb 74f 80f
5:24pm 17 24 mph 1011.8mb 74f 80f
5:18pm 17 24 mph 1011.8mb 74f 80f
5:12pm 18 24 mph 1011.6mb 74f 80f
5:06pm 17 25 mph 1011.6mb 74f 80f
5:00pm 16 24 mph 1011.5mb 74f 80f
4:54pm 21 28 mph 1011.3mb 74f 80f
4:48pm 16 23 mph 1011.3mb 74f 80f
4:42pm 15 22 mph 1011.2mb 74f 80f
4:36pm 15 22 mph 1011.2mb 74f 80f
4:30pm 13 25 mph 1011.2mb 74f 80f
4:24pm 13 25 mph 1011.2mb 74f 80f
4:18pm 16 23 mph 1011.2mb 74f 80f
4:12pm 17 24 mph 1011.3mb 74f 80f
4:06pm 16 29 mph 1011.2mb 74f 80f
4:00pm 22 31 mph 1011.2mb 74f 80f
3:54pm 21 30 mph 1011.1mb 74f 80f
3:48pm 16 29 mph 1011mb 74f 81f
3:42pm 16 30 mph 1010.8mb 74f 81f
3:36pm 21 29 mph 1010.8mb 74f 81f
3:30pm 20 24 mph 1010.7mb 74f 81f
3:24pm 18 29 mph 1010.8mb 74f 81f
3:18pm 18 29 mph 1010.8mb 74f 81f
3:12pm 16 29 mph 1010.7mb 74f 81f
3:06pm 15 25 mph 1010.5mb 74f 82f
3:00pm 21 26 mph 1010.6mb 74f 82f
2:54pm 18 29 mph 1010.6mb 74f 82f
2:48pm 21 29 mph 1010.7mb 74f 82f
2:42pm 15 23 mph 1010.7mb 74f 82f
2:36pm 16 28 mph 1010.6mb 74f 82f
2:30pm 16 22 mph 1010.5mb 74f 82f
2:24pm 13 23 mph 1010.5mb 74f 82f
2:18pm 20 25 mph 1010.5mb 74f 82f
2:12pm 20 26 mph 1010.5mb 74f 82f
2:06pm 18 28 mph 1010.4mb 74f 82f
2:00pm 22 28 mph 1010.5mb 74f 82f
1:54pm 17 24 mph 1010.4mb 74f 82f
1:48pm 16 22 mph 1010.6mb 74f 82f
1:42pm 20 25 mph 1010.7mb 74f 82f
1:36pm 14 25 mph 1010.8mb 74f 81f
1:30pm 20 23 mph 1010.9mb 74f 81f
1:24pm 22 29 mph 1010.9mb 74f 81f
1:18pm 22 28 mph 1010.8mb 74f 82f
1:12pm 20 26 mph 1010.8mb 74f 81f
1:06pm 18 24 mph 1010.8mb 74f 81f
1:00pm 15 23 mph 1010.8mb 74f 81f
12:54pm 18 25 mph 1010.8mb 74f 80f